Time;durP1;ratioP1;P1;durP2;ratioP2;P2;SDS_P1;SDS_P2;PMS_P1;PMS_P2;Temp;Humidity;BMP_temperature;BMP_pressure;BME280_temperature;BME280_humidity;BME280_pressure;Samples;Min_cycle;Max_cycle;Signal;HPM_P1;HPM_P2
2022/04/22 00:00:38;;;;;;;12.28;6.92;;;;;;;8.20;69.73;100279.52;1718834;82;21110;-52
2022/04/22 00:03:06;;;;;;;10.72;6.75;;;;;;;8.22;70.02;100281.58;1713685;83;21245;-52
2022/04/22 00:05:34;;;;;;;11.70;6.72;;;;;;;8.21;69.99;100278.58;1711792;82;21517;-52
2022/04/22 00:08:01;;;;;;;10.03;6.72;;;;;;;8.19;70.04;100283.09;1709389;82;21581;-52
2022/04/22 00:10:28;;;;;;;13.48;5.87;;;;;;;8.15;70.13;100281.17;1715535;82;21261;-52
2022/04/22 00:12:57;;;;;;;9.10;5.50;;;;;;;8.11;70.21;100276.26;1697890;83;21043;-52
2022/04/22 00:15:23;;;;;;;9.80;6.25;;;;;;;8.10;70.23;100277.19;1706478;82;21405;-52
2022/04/22 00:17:50;;;;;;;10.82;5.85;;;;;;;8.10;70.10;100280.67;1715427;83;21403;-52
2022/04/22 00:20:19;;;;;;;10.05;5.35;;;;;;;8.11;70.15;100273.64;1686953;82;21118;-52
2022/04/22 00:22:47;;;;;;;10.38;5.55;;;;;;;8.13;70.19;100279.12;1717570;83;21031;-52
2022/04/22 00:25:14;;;;;;;10.68;5.92;;;;;;;8.16;70.38;100279.38;1714898;82;21052;-52
2022/04/22 00:27:41;;;;;;;8.18;5.30;;;;;;;8.15;70.46;100278.55;1710959;82;22306;-52
2022/04/22 00:30:10;;;;;;;8.85;5.75;;;;;;;8.16;70.42;100278.91;1714299;82;21050;-52
2022/04/22 00:32:38;;;;;;;9.25;5.37;;;;;;;8.12;70.33;100278.77;1716276;82;21042;-53
2022/04/22 00:35:06;;;;;;;11.03;5.60;;;;;;;8.10;70.27;100279.81;1714505;82;21018;-53
2022/04/22 00:37:34;;;;;;;8.50;4.90;;;;;;;8.07;70.27;100280.02;1717528;83;21073;-53
2022/04/22 00:40:01;;;;;;;9.25;5.00;;;;;;;8.07;70.25;100283.95;1717265;82;21222;-53
2022/04/22 00:42:28;;;;;;;8.03;4.90;;;;;;;8.09;70.13;100276.36;1710877;83;21086;-52
2022/04/22 00:44:57;;;;;;;8.83;4.85;;;;;;;8.11;69.98;100280.19;1747712;80;21051;-53
2022/04/22 00:47:25;;;;;;;8.63;5.00;;;;;;;8.12;70.00;100281.84;1746702;80;21075;-52
2022/04/22 00:49:51;;;;;;;8.25;4.47;;;;;;;8.10;69.97;100278.05;1743106;82;21556;-52
2022/04/22 00:52:20;;;;;;;7.33;4.30;;;;;;;8.11;69.99;100280.19;1747209;80;21003;-52
2022/04/22 00:54:48;;;;;;;7.58;3.92;;;;;;;8.09;69.85;100283.40;1748406;82;21586;-52
2022/04/22 00:57:18;;;;;;;7.42;4.03;;;;;;;8.04;69.77;100281.09;1750174;80;21059;-52
2022/04/22 00:59:45;;;;;;;11.18;4.12;;;;;;;7.99;69.90;100284.03;1743245;82;20993;-52
2022/04/22 01:02:12;;;;;;;7.25;3.62;;;;;;;7.98;69.77;100293.31;1741346;81;21133;-52
2022/04/22 01:10:12;;;;;;;8.38;5.35;;;;;;;8.00;69.81;100283.10;1746248;81;21509;-53
2022/04/22 01:12:40;;;;;;;8.53;4.92;;;;;;;7.99;70.02;100287.14;1749256;81;21022;-53
2022/04/22 01:15:08;;;;;;;10.88;6.65;;;;;;;8.00;70.17;100284.41;1747436;80;21042;-53
2022/04/22 01:17:37;;;;;;;11.70;7.35;;;;;;;8.03;70.09;100289.06;1742634;80;21115;-53
2022/04/22 01:20:07;;;;;;;11.48;6.45;;;;;;;7.96;70.03;100283.42;1740404;81;21552;-53
2022/04/22 01:22:35;;;;;;;11.03;7.12;;;;;;;7.90;70.19;100284.70;1743516;80;21045;-53
2022/04/22 01:25:03;;;;;;;10.08;6.30;;;;;;;7.90;70.17;100282.53;1742949;82;21023;-53
2022/04/22 01:27:31;;;;;;;11.38;6.55;;;;;;;7.88;70.29;100279.19;1748945;81;21040;-53
2022/04/22 01:30:00;;;;;;;9.73;6.55;;;;;;;7.89;70.53;100277.77;1705913;82;22522;-53
2022/04/22 01:32:27;;;;;;;11.33;6.90;;;;;;;7.92;70.68;100276.73;1704284;83;21510;-53
2022/04/22 01:34:54;;;;;;;9.75;7.33;;;;;;;7.90;70.64;100274.67;1704463;83;21794;-53
2022/04/22 01:37:23;;;;;;;13.62;7.83;;;;;;;7.87;70.79;100278.81;1697242;83;20995;-52
2022/04/22 01:39:49;;;;;;;10.82;7.12;;;;;;;7.86;71.03;100277.98;1707903;83;21533;-53
2022/04/22 01:42:18;;;;;;;10.63;6.42;;;;;;;7.81;71.03;100273.06;1700742;83;21533;-53
2022/04/22 01:44:46;;;;;;;10.43;6.37;;;;;;;7.80;71.12;100271.41;1692570;84;21000;-53
2022/04/22 01:47:12;;;;;;;9.85;6.65;;;;;;;7.83;71.17;100272.95;1700241;83;21127;-53
2022/04/22 01:49:39;;;;;;;9.28;6.17;;;;;;;7.91;71.15;100274.56;1685921;83;21036;-52
2022/04/22 01:52:07;;;;;;;9.43;5.72;;;;;;;7.97;70.98;100272.00;1683674;84;21094;-53
2022/04/22 01:54:35;;;;;;;9.48;6.15;;;;;;;8.01;70.87;100272.14;1685269;84;21087;-53
2022/04/22 01:57:03;;;;;;;9.38;6.30;;;;;;;8.06;70.91;100274.44;1696958;83;21533;-53
2022/04/22 01:59:30;;;;;;;10.32;6.85;;;;;;;8.06;70.97;100265.27;1678346;84;21073;-53
2022/04/22 02:01:58;;;;;;;9.70;6.28;;;;;;;8.07;70.95;100271.71;1696399;82;20963;-54
2022/04/22 02:04:25;;;;;;;9.93;6.50;;;;;;;8.06;70.96;100269.20;1706950;83;21078;-53
2022/04/22 02:06:52;;;;;;;11.30;6.10;;;;;;;8.03;70.98;100274.66;1696394;82;21156;-53
2022/04/22 02:09:20;;;;;;;11.40;5.92;;;;;;;8.00;70.99;100271.77;1704439;83;21067;-53
2022/04/22 02:11:48;;;;;;;9.75;5.45;;;;;;;7.99;71.10;100273.55;1699756;83;21110;-53
2022/04/22 02:14:14;;;;;;;9.53;5.45;;;;;;;8.05;70.99;100274.06;1706497;82;21103;-53
2022/04/22 02:16:42;;;;;;;8.85;5.50;;;;;;;8.05;70.92;100272.27;1704802;83;21080;-53
2022/04/22 02:19:10;;;;;;;9.98;6.12;;;;;;;8.04;70.89;100276.34;1706852;83;21236;-53
2022/04/22 02:21:37;;;;;;;10.38;6.42;;;;;;;8.01;71.10;100276.06;1701581;83;21079;-53
2022/04/22 02:24:06;;;;;;;9.98;6.85;;;;;;;8.00;71.28;100273.07;1696789;83;21101;-53
2022/04/22 02:28:31;;;;;;;10.70;6.85;;;;;;;8.00;71.42;100275.24;1699686;82;21063;-53
2022/04/22 02:29:02;;;;;;;9.53;6.17;;;;;;;7.98;71.45;100269.73;1697569;82;21094;-53
2022/04/22 02:31:28;;;;;;;9.83;6.05;;;;;;;7.94;71.55;100276.15;1696985;83;21244;-53
2022/04/22 02:33:56;;;;;;;9.95;7.17;;;;;;;7.90;71.64;100279.91;1703898;82;21087;-52
2022/04/22 02:36:23;;;;;;;10.15;6.60;;;;;;;7.89;71.72;100284.33;1698632;83;21526;-52
2022/04/22 02:38:49;;;;;;;11.93;6.72;;;;;;;7.95;71.75;100280.42;1707809;83;21138;-53
2022/04/22 02:46:48;;;;;;;11.55;7.60;;;;;;;8.16;71.80;100276.28;1694091;82;21031;-52
2022/04/22 02:49:16;;;;;;;12.82;8.10;;;;;;;8.15;71.74;100275.08;1708846;83;21067;-51
2022/04/22 02:51:42;;;;;;;12.25;7.60;;;;;;;8.12;71.76;100273.53;1705835;83;21063;-53
2022/04/22 02:54:10;;;;;;;13.35;8.25;;;;;;;8.10;71.82;100266.70;1706422;83;21039;-53
2022/04/22 02:57:45;;;;;;;11.18;6.85;;;;;;;8.09;72.09;100267.67;1791814;78;22562;-53
2022/04/22 03:00:14;;;;;;;12.00;7.78;;;;;;;8.10;71.78;100275.88;1757580;80;20995;-53
2022/04/22 03:02:44;;;;;;;11.05;6.95;;;;;;;8.11;71.80;100274.95;1769144;80;22111;-53
2022/04/22 03:05:12;;;;;;;11.45;7.40;;;;;;;8.13;71.82;100278.28;1772999;80;20947;-53
2022/04/22 03:07:39;;;;;;;10.10;7.00;;;;;;;8.17;71.91;100278.45;1768692;80;21027;-53
2022/04/22 03:10:07;;;;;;;12.70;7.92;;;;;;;8.20;72.12;100280.83;1763268;80;21070;-53
2022/04/22 03:12:35;;;;;;;12.68;7.60;;;;;;;8.22;72.08;100284.20;1760505;80;21038;-53
2022/04/22 03:15:03;;;;;;;11.25;7.33;;;;;;;8.20;72.04;100286.06;1765226;80;22291;-53
2022/04/22 03:17:31;;;;;;;11.12;7.00;;;;;;;8.14;71.95;100282.11;1767052;80;20970;-53
2022/04/22 03:19:58;;;;;;;11.25;7.03;;;;;;;8.12;71.99;100283.16;1767816;80;21062;-53
2022/04/22 03:22:26;;;;;;;10.48;6.72;;;;;;;8.13;71.96;100282.22;1768682;80;21046;-53
2022/04/22 03:24:53;;;;;;;10.60;7.25;;;;;;;8.14;71.87;100283.91;1735314;81;21092;-54
2022/04/22 03:27:20;;;;;;;12.75;7.22;;;;;;;8.16;72.00;100285.94;1702761;83;21831;-53
2022/04/22 03:29:47;;;;;;;11.20;7.22;;;;;;;8.20;72.04;100283.45;1721281;82;21132;-53
2022/04/22 03:32:14;;;;;;;9.73;6.42;;;;;;;8.20;72.14;100292.62;1715054;82;21523;-53
2022/04/22 03:34:40;;;;;;;10.78;7.25;;;;;;;8.19;72.12;100297.03;1719942;81;21054;-53
2022/04/22 03:37:08;;;;;;;11.57;7.92;;;;;;;8.19;72.24;100297.52;1721194;82;21551;-54
2022/04/22 03:39:36;;;;;;;10.18;6.72;;;;;;;8.19;72.25;100293.59;1709828;82;22275;-54
2022/04/22 03:42:06;;;;;;;10.23;6.95;;;;;;;8.14;71.94;100300.45;1721559;82;21109;-53
2022/04/22 03:44:32;;;;;;;11.25;7.03;;;;;;;8.13;71.95;100305.33;1722284;81;21001;-53
2022/04/22 03:47:03;;;;;;;10.70;6.47;;;;;;;8.10;72.00;100304.26;1720302;81;21141;-53
2022/04/22 03:49:31;;;;;;;10.38;7.17;;;;;;;8.10;72.16;100301.64;1724660;83;21058;-53
2022/04/22 03:51:59;;;;;;;9.53;6.70;;;;;;;8.11;72.28;100306.39;1716264;83;21086;-53
2022/04/22 03:54:26;;;;;;;10.20;6.72;;;;;;;8.10;72.42;100309.95;1712676;83;21467;-53
2022/04/22 03:59:41;;;;;;;10.53;7.42;;;;;;;8.02;72.77;100307.03;1745253;80;20999;-52
2022/04/22 04:02:09;;;;;;;9.85;6.55;;;;;;;8.00;72.90;100313.23;1740243;80;21030;-52
2022/04/22 04:04:37;;;;;;;10.43;6.83;;;;;;;7.99;73.00;100315.48;1740697;80;21070;-53
2022/04/22 04:07:06;;;;;;;10.20;6.33;;;;;;;8.02;72.98;100313.12;1707515;82;21110;-53
2022/04/22 04:17:51;;;;;;;11.48;7.40;;;;;;;8.10;73.48;100320.43;1734292;81;21051;-53
2022/04/22 04:23:14;;;;;;;10.20;7.20;;;;;;;8.12;73.70;100320.70;1742724;80;21086;-52
2022/04/22 04:25:43;;;;;;;9.53;6.85;;;;;;;8.16;73.50;100322.63;1735577;82;21095;-52
2022/04/22 04:28:11;;;;;;;10.38;6.72;;;;;;;8.19;73.38;100323.73;1743669;80;21082;-52
2022/04/22 04:30:39;;;;;;;10.30;7.12;;;;;;;8.23;73.40;100323.86;1736267;81;21136;-52
2022/04/22 04:33:07;;;;;;;9.85;7.03;;;;;;;8.27;73.40;100323.16;1704194;82;21070;-52
2022/04/22 04:35:38;;;;;;;11.90;7.87;;;;;;;8.32;73.50;100326.30;1676587;85;21107;-52
2022/04/22 04:38:06;;;;;;;10.15;7.47;;;;;;;8.35;73.54;100332.19;1706561;82;21107;-53
2022/04/22 04:40:34;;;;;;;11.38;7.72;;;;;;;8.36;73.51;100332.52;1707837;82;21185;-52
2022/04/22 04:43:01;;;;;;;11.00;7.58;;;;;;;8.36;73.54;100338.25;1701204;82;21208;-52
2022/04/22 04:45:29;;;;;;;11.93;8.13;;;;;;;8.36;73.62;100338.25;1706702;82;21047;-52
2022/04/22 04:47:57;;;;;;;11.15;7.42;;;;;;;8.38;73.59;100342.42;1703026;82;21038;-52
2022/04/22 04:50:25;;;;;;;10.98;7.47;;;;;;;8.44;73.45;100339.89;1700041;82;21070;-52
2022/04/22 04:52:52;;;;;;;9.83;7.03;;;;;;;8.50;73.29;100346.47;1699795;83;21661;-52
2022/04/22 04:55:19;;;;;;;10.23;7.47;;;;;;;8.53;73.25;100344.45;1708864;83;21253;-52
2022/04/22 04:57:48;;;;;;;12.58;8.28;;;;;;;8.59;73.32;100345.81;1711660;82;21083;-52
2022/04/22 05:00:16;;;;;;;12.37;8.25;;;;;;;8.64;73.33;100349.39;1719769;82;21093;-52
2022/04/22 05:02:48;;;;;;;13.25;8.05;;;;;;;8.64;73.21;100354.19;1729733;81;21050;-52
2022/04/22 05:05:14;;;;;;;11.00;8.13;;;;;;;8.64;73.22;100350.25;1728547;81;21062;-52
2022/04/22 05:08:00;;;;;;;12.68;8.58;;;;;;;8.62;73.08;100348.67;1716828;82;21642;-52
2022/04/22 05:10:30;;;;;;;11.57;8.03;;;;;;;8.57;73.07;100345.06;1722737;82;21051;-53
2022/04/22 05:12:59;;;;;;;11.63;7.75;;;;;;;8.59;73.08;100349.75;1716855;82;21051;-53
2022/04/22 05:15:26;;;;;;;11.68;8.08;;;;;;;8.63;73.11;100345.12;1718832;82;21038;-53
2022/04/22 05:17:55;;;;;;;11.57;8.38;;;;;;;8.68;73.19;100348.23;1725475;82;21117;-53
2022/04/22 05:20:26;;;;;;;13.00;8.53;;;;;;;8.73;73.20;100348.26;1722290;82;21038;-53
2022/04/22 05:22:53;;;;;;;12.95;8.45;;;;;;;8.76;73.27;100346.35;1724831;81;21043;-53
2022/04/22 05:25:21;;;;;;;12.37;8.60;;;;;;;8.74;73.25;100349.95;1722506;82;21129;-54
2022/04/22 05:27:49;;;;;;;12.58;8.68;;;;;;;8.74;73.35;100351.25;1676871;84;21082;-53
2022/04/22 05:33:03;;;;;;;12.95;8.30;;;;;;;8.78;73.45;100347.93;1717067;82;21119;-53
2022/04/22 05:35:31;;;;;;;11.33;8.08;;;;;;;8.88;73.34;100350.72;1712337;82;21935;-53
2022/04/22 05:38:04;;;;;;;13.08;8.95;;;;;;;8.95;73.26;100356.36;1713822;82;21126;-53
2022/04/22 05:40:38;;;;;;;13.95;9.80;;;;;;;9.01;73.24;100360.68;1725638;82;21576;-54
2022/04/22 05:43:06;;;;;;;12.15;9.68;;;;;;;9.06;73.13;100354.61;1719027;82;21052;-52
2022/04/22 05:45:33;;;;;;;13.58;9.45;;;;;;;9.11;73.25;100362.13;1679077;84;21275;-52
2022/04/22 05:48:00;;;;;;;12.45;9.78;;;;;;;9.13;73.16;100364.19;1716371;82;21596;-52
2022/04/22 05:50:28;;;;;;;14.85;9.75;;;;;;;9.13;73.19;100364.19;1663360;85;21716;-53
2022/04/22 05:52:57;;;;;;;13.85;9.48;;;;;;;9.14;73.13;100372.89;1722883;82;21104;-52
2022/04/22 05:55:29;;;;;;;15.00;10.70;;;;;;;9.16;73.13;100377.05;1718178;82;21039;-52
2022/04/22 05:57:57;;;;;;;12.65;8.83;;;;;;;9.21;72.91;100374.09;1715613;82;21147;-52
2022/04/22 06:00:27;;;;;;;13.35;9.83;;;;;;;9.25;72.72;100376.38;1711647;82;21000;-53
2022/04/22 06:02:57;;;;;;;13.15;9.83;;;;;;;9.24;72.61;100378.64;1716760;82;21055;-53
2022/04/22 06:05:24;;;;;;;13.08;10.05;;;;;;;9.24;72.74;100380.44;1714341;82;21913;-53
2022/04/22 06:10:40;;;;;;;13.78;9.58;;;;;;;9.23;72.80;100378.30;1724032;82;21056;-52
2022/04/22 06:13:08;;;;;;;15.53;11.12;;;;;;;9.24;72.85;100384.38;1720988;82;21081;-52
2022/04/22 06:15:36;;;;;;;13.25;9.40;;;;;;;9.23;72.61;100388.80;1716254;81;21050;-52
2022/04/22 06:18:05;;;;;;;14.93;11.28;;;;;;;9.26;72.53;100383.33;1657435;86;21062;-52
2022/04/22 06:20:33;;;;;;;12.70;9.73;;;;;;;9.31;72.44;100393.46;1674885;83;21070;-52
2022/04/22 06:23:00;;;;;;;13.10;9.93;;;;;;;9.34;72.33;100387.98;1724625;82;21096;-52
2022/04/22 06:25:29;;;;;;;15.18;12.20;;;;;;;9.37;72.38;100393.02;1726628;82;21615;-52
2022/04/22 06:27:56;;;;;;;14.15;10.78;;;;;;;9.38;72.41;100389.45;1720869;82;21711;-52
2022/04/22 06:30:22;;;;;;;18.27;12.78;;;;;;;9.39;72.40;100383.22;1725538;82;21055;-54
2022/04/22 06:32:53;;;;;;;15.63;11.12;;;;;;;9.40;72.42;100391.47;1720402;82;21599;-54
2022/04/22 06:35:21;;;;;;;17.15;10.53;;;;;;;9.45;72.35;100395.08;1664167;84;21175;-54
2022/04/22 06:37:50;;;;;;;19.37;11.63;;;;;;;9.50;72.22;100396.87;1678051;84;22400;-54
2022/04/22 06:45:51;;;;;;;19.23;13.68;;;;;;;9.53;71.46;100397.11;1722139;82;21094;-53
2022/04/22 06:48:30;;;;;;;16.23;12.10;;;;;;;9.51;71.52;100399.02;1720741;82;21075;-53
2022/04/22 06:50:56;;;;;;;15.58;11.85;;;;;;;9.47;71.53;100403.67;1720606;81;21126;-53
2022/04/22 06:53:23;;;;;;;17.90;12.25;;;;;;;9.42;71.49;100409.75;1724545;81;21031;-54
2022/04/22 06:55:50;;;;;;;14.93;12.25;;;;;;;9.39;71.72;100416.05;1722112;82;21065;-52
2022/04/22 06:58:18;;;;;;;15.35;11.33;;;;;;;9.39;71.67;100408.66;1741139;80;21103;-52
2022/04/22 07:00:47;;;;;;;16.55;12.55;;;;;;;9.43;71.60;100408.32;1745063;80;21054;-52
2022/04/22 07:03:16;;;;;;;20.08;13.28;;;;;;;9.50;71.68;100413.95;1746534;80;21036;-52
2022/04/22 07:05:45;;;;;;;17.87;12.03;;;;;;;9.58;71.58;100414.22;1751021;80;21584;-52
2022/04/22 07:08:14;;;;;;;17.05;12.58;;;;;;;9.60;71.44;100412.30;1750038;80;21059;-52
2022/04/22 07:10:45;;;;;;;17.00;12.63;;;;;;;9.61;71.45;100411.33;1751375;80;21048;-52
2022/04/22 07:13:16;;;;;;;18.05;13.28;;;;;;;9.61;71.39;100413.95;1751278;80;21082;-54
2022/04/22 07:15:45;;;;;;;17.95;12.63;;;;;;;9.58;71.45;100416.84;1751406;80;21034;-52
2022/04/22 07:18:13;;;;;;;17.10;11.88;;;;;;;9.59;71.24;100421.61;1748805;80;21369;-53
2022/04/22 07:20:43;;;;;;;19.12;13.35;;;;;;;9.62;71.10;100422.22;1752924;80;21019;-52
2022/04/22 07:23:12;;;;;;;18.95;13.65;;;;;;;9.66;71.05;100418.39;1750578;80;21615;-52
2022/04/22 07:25:44;;;;;;;18.00;13.58;;;;;;;9.72;70.80;100414.48;1751253;80;21039;-52
2022/04/22 07:28:13;;;;;;;16.73;12.73;;;;;;;9.76;70.76;100415.91;1749972;80;21517;-52
2022/04/22 07:30:45;;;;;;;17.87;13.95;;;;;;;9.79;70.72;100420.94;1749286;80;21039;-52
2022/04/22 07:33:11;;;;;;;19.60;13.98;;;;;;;9.81;70.79;100414.25;1749950;80;21020;-52
2022/04/22 07:35:40;;;;;;;19.20;13.15;;;;;;;9.84;70.93;100416.16;1752982;80;21078;-52
2022/04/22 07:38:10;;;;;;;16.17;12.37;;;;;;;9.90;70.48;100421.45;1754605;80;21115;-53
2022/04/22 07:40:40;;;;;;;18.07;13.05;;;;;;;9.94;69.91;100421.55;1753707;80;21047;-53
2022/04/22 07:48:40;;;;;;;;;;;;;;;9.98;69.38;100422.98;1752903;80;21102;-52
2022/04/22 07:51:07;;;;;;;19.60;15.03;;;;;;;9.95;69.45;100431.13;1750529;80;21112;-52
2022/04/22 07:53:35;;;;;;;19.73;14.10;;;;;;;9.89;69.50;100439.95;1755168;80;21027;-52
2022/04/22 07:56:03;;;;;;;19.17;14.60;;;;;;;9.89;69.65;100434.21;1699613;82;21044;-52
2022/04/22 07:58:32;;;;;;;20.40;14.35;;;;;;;9.92;69.49;100428.73;1751841;80;21453;-52
2022/04/22 08:00:59;;;;;;;17.73;13.43;;;;;;;10.00;69.21;100426.81;1753849;80;20983;-53
2022/04/22 08:03:28;;;;;;;18.23;13.48;;;;;;;10.08;69.22;100431.00;1746713;80;21048;-52
2022/04/22 08:05:55;;;;;;;18.45;13.45;;;;;;;10.17;69.14;100430.76;1749882;80;21003;-53
2022/04/22 08:08:28;;;;;;;19.62;14.28;;;;;;;10.21;69.04;100439.61;1755160;80;21035;-52
2022/04/22 08:10:52;;;;;;;19.73;14.30;;;;;;;10.23;68.66;100436.87;1745903;80;21525;-53
2022/04/22 08:13:19;;;;;;;19.87;14.58;;;;;;;10.22;68.28;100439.12;1750666;80;21020;-53
2022/04/22 08:15:46;;;;;;;18.55;14.28;;;;;;;10.14;68.27;100440.23;1746631;80;21807;-53
2022/04/22 08:18:14;;;;;;;19.15;13.83;;;;;;;10.09;68.32;100439.75;1751442;80;21078;-52
2022/04/22 08:20:42;;;;;;;21.85;15.18;;;;;;;10.09;68.21;100439.27;1759797;79;21086;-53
2022/04/22 08:23:09;;;;;;;17.87;13.30;;;;;;;10.10;67.83;100437.45;1755330;80;21051;-52
2022/04/22 08:25:37;;;;;;;22.60;13.83;;;;;;;10.13;67.91;100448.57;1746590;80;21082;-53
2022/04/22 08:28:05;;;;;;;18.25;13.55;;;;;;;10.18;67.84;100453.48;1749120;80;21070;-52
2022/04/22 08:30:33;;;;;;;18.45;13.38;;;;;;;10.17;67.99;100446.08;1747455;80;21635;-53
2022/04/22 08:33:03;;;;;;;22.00;12.98;;;;;;;10.17;67.79;100445.22;1752685;80;21043;-53
2022/04/22 08:35:29;;;;;;;19.40;12.98;;;;;;;10.11;67.73;100441.28;1764948;80;21097;-52
2022/04/22 08:37:59;;;;;;;17.87;13.13;;;;;;;10.07;67.70;100450.37;1763649;80;21055;-53
2022/04/22 08:40:26;;;;;;;18.82;12.20;;;;;;;10.03;67.61;100456.81;1746981;80;21284;-53
2022/04/22 08:42:53;;;;;;;17.60;12.23;;;;;;;10.04;67.83;100451.92;1750551;80;21150;-52
2022/04/22 08:45:25;;;;;;;15.93;11.33;;;;;;;10.10;67.58;100458.00;1746952;80;21039;-53
2022/04/22 08:50:37;;;;;;;19.30;12.47;;;;;;;10.23;67.80;100461.36;1749298;80;21023;-53
2022/04/22 08:53:05;;;;;;;20.55;13.40;;;;;;;10.22;67.59;100451.82;1764619;80;21191;-53
2022/04/22 08:55:34;;;;;;;18.07;12.65;;;;;;;10.21;67.52;100452.77;1743214;80;21035;-54
2022/04/22 08:58:03;;;;;;;20.80;14.80;;;;;;;10.18;67.32;100455.62;1763041;80;21051;-53
2022/04/22 09:00:34;;;;;;;20.27;13.53;;;;;;;10.14;67.52;100451.58;1758061;80;21109;-53
2022/04/22 09:03:00;;;;;;;19.02;13.75;;;;;;;10.10;67.50;100454.06;1751530;80;22483;-53
2022/04/22 09:05:29;;;;;;;16.90;12.23;;;;;;;10.10;67.58;100455.86;1767385;80;21161;-53
2022/04/22 09:07:56;;;;;;;17.95;12.75;;;;;;;10.14;67.56;100452.89;1764991;80;21119;-53
2022/04/22 09:10:23;;;;;;;18.17;12.80;;;;;;;10.21;67.41;100446.67;1757098;80;21035;-53
2022/04/22 09:12:54;;;;;;;18.85;13.70;;;;;;;10.28;67.48;100457.55;1751151;80;21035;-53
2022/04/22 09:15:23;;;;;;;21.50;14.13;;;;;;;10.31;67.37;100457.33;1768266;79;21545;-53
2022/04/22 09:17:50;;;;;;;20.45;13.43;;;;;;;10.31;67.17;100454.69;1766333;80;21079;-54
2022/04/22 09:20:18;;;;;;;16.97;12.43;;;;;;;10.33;67.26;100460.70;1763511;80;21063;-52
2022/04/22 09:22:46;;;;;;;20.92;14.50;;;;;;;10.34;67.42;100463.67;1752786;80;21086;-52
2022/04/22 09:25:23;;;;;;;21.65;14.00;;;;;;;10.35;67.25;100466.18;1760516;80;20996;-53
2022/04/22 09:27:49;;;;;;;21.87;13.97;;;;;;;10.35;67.08;100463.55;1764821;80;21126;-52
2022/04/22 09:30:17;;;;;;;22.07;13.80;;;;;;;10.39;66.91;100461.55;1611414;83;21151;-52
2022/04/22 09:32:45;;;;;;;19.77;13.58;;;;;;;10.45;66.62;100463.67;1590905;88;21103;-53
2022/04/22 09:35:17;;;;;;;18.25;12.93;;;;;;;10.45;66.58;100468.94;1552450;90;21156;-52
2022/04/22 09:43:37;;;;;;;18.15;13.80;;;;;;;10.37;66.43;100481.39;1576446;90;21455;-53
2022/04/22 09:46:04;;;;;;;16.27;12.37;;;;;;;10.33;66.84;100477.30;1595706;88;21593;-52
2022/04/22 09:48:44;;;;;;;19.57;13.40;;;;;;;10.36;66.87;100476.25;1592502;88;22534;-52
2022/04/22 09:51:33;;;;;;;20.00;14.23;;;;;;;10.44;66.77;100480.44;1586930;88;21056;-53
2022/04/22 09:54:05;;;;;;;18.62;14.07;;;;;;;10.53;66.77;100482.33;1597960;88;21152;-52
2022/04/22 09:56:33;;;;;;;22.07;14.60;;;;;;;10.58;66.72;100484.13;1607901;87;21571;-53
2022/04/22 09:59:23;;;;;;;17.00;13.43;;;;;;;10.62;66.80;100484.71;1613148;87;21062;-52
2022/04/22 10:01:51;;;;;;;17.65;12.93;;;;;;;10.66;66.43;100480.90;1639643;86;21093;-53
2022/04/22 10:04:21;;;;;;;19.55;13.95;;;;;;;10.67;66.08;100479.09;1639816;86;21083;-53
2022/04/22 10:06:49;;;;;;;19.50;14.25;;;;;;;10.65;66.07;100484.97;1633581;86;21114;-52
2022/04/22 10:09:16;;;;;;;17.65;12.60;;;;;;;10.64;66.10;100482.82;1638586;86;21129;-52
2022/04/22 10:11:47;;;;;;;17.55;12.50;;;;;;;10.69;65.88;100484.61;1640912;86;21075;-53
2022/04/22 10:14:15;;;;;;;17.37;11.78;;;;;;;10.72;65.77;100479.08;1639356;86;21113;-53
2022/04/22 10:16:43;;;;;;;15.98;12.68;;;;;;;10.75;65.52;100488.05;1639624;85;21078;-52
2022/04/22 10:19:12;;;;;;;17.67;12.50;;;;;;;10.78;65.51;100497.52;1639823;86;21069;-52
2022/04/22 10:21:39;;;;;;;17.00;13.90;;;;;;;10.79;65.45;100504.44;1640561;85;21157;-52
2022/04/22 10:24:07;;;;;;;17.75;12.70;;;;;;;10.76;65.41;100503.39;1636500;86;21050;-53
2022/04/22 10:26:34;;;;;;;17.87;13.00;;;;;;;10.75;65.79;100503.84;1636971;86;21097;-52
2022/04/22 10:29:03;;;;;;;18.12;13.75;;;;;;;10.76;65.58;100509.97;1651710;85;21592;-53
2022/04/22 10:31:36;;;;;;;15.23;11.53;;;;;;;10.73;65.66;100500.99;1657763;85;21582;-52
2022/04/22 10:34:07;;;;;;;16.70;12.20;;;;;;;10.77;65.76;100501.09;1676184;83;21623;-53
2022/04/22 10:36:37;;;;;;;15.10;11.33;;;;;;;10.87;65.69;100500.72;1653792;85;21110;-52
2022/04/22 10:39:04;;;;;;;15.72;12.58;;;;;;;10.96;65.27;100502.64;1677641;83;21060;-52
2022/04/22 10:41:35;;;;;;;17.98;13.30;;;;;;;11.02;65.03;100499.98;1659296;85;21543;-52
2022/04/22 10:49:44;;;;;;;18.52;12.35;;;;;;;11.08;65.18;100498.67;1671969;83;21075;-52
2022/04/22 10:52:21;;;;;;;18.17;12.63;;;;;;;11.08;65.23;100502.63;1678684;85;21126;-53
2022/04/22 10:54:59;;;;;;;15.32;12.18;;;;;;;11.08;65.47;100507.40;1677130;83;21827;-53
2022/04/22 10:57:32;;;;;;;14.33;11.08;;;;;;;11.09;65.42;100512.17;1671075;84;21600;-52
2022/04/22 11:00:14;;;;;;;19.32;10.65;;;;;;;11.12;65.17;100500.91;1677129;83;21317;-53
2022/04/22 11:02:42;;;;;;;16.60;12.30;;;;;;;11.19;64.73;100497.30;1681187;84;21077;-51
2022/04/22 11:05:32;;;;;;;12.60;9.98;;;;;;;11.25;64.50;100482.82;1673648;83;21070;-52
2022/04/22 11:08:01;;;;;;;16.00;10.85;;;;;;;11.25;64.32;100484.14;1682910;83;21042;-51
2022/04/22 11:10:52;;;;;;;18.67;13.22;;;;;;;11.25;64.32;100492.05;1673093;85;21134;-54
2022/04/22 11:13:41;;;;;;;15.50;11.83;;;;;;;11.28;64.49;100493.94;1680058;83;21284;-52
2022/04/22 11:16:30;;;;;;;15.65;11.03;;;;;;;11.32;64.36;100494.03;1679013;83;21074;-52
2022/04/22 11:19:20;;;;;;;14.98;11.12;;;;;;;11.35;64.44;100485.06;1683893;83;21114;-54
2022/04/22 11:21:57;;;;;;;15.48;11.55;;;;;;;11.37;64.06;100480.98;1656501;85;21060;-52
2022/04/22 11:24:27;;;;;;;14.35;9.90;;;;;;;11.39;63.81;100479.05;1682818;83;21157;-52
2022/04/22 11:27:14;;;;;;;13.38;10.18;;;;;;;11.45;63.75;100485.15;1676517;83;21146;-53
2022/04/22 11:29:41;;;;;;;13.15;9.30;;;;;;;11.53;63.84;100476.10;1681836;83;21540;-54
2022/04/22 11:32:24;;;;;;;16.12;9.25;;;;;;;11.62;63.64;100466.12;1675145;84;21845;-54
2022/04/22 11:35:14;;;;;;;11.20;8.35;;;;;;;11.69;63.13;100465.97;1672395;83;21063;-53
2022/04/22 11:37:40;;;;;;;13.85;8.75;;;;;;;11.70;62.74;100471.60;1675498;83;21021;-53
2022/04/22 11:40:08;;;;;;;14.63;8.70;;;;;;;11.73;62.81;100472.30;1679920;83;21329;-53
2022/04/22 11:42:43;;;;;;;12.88;9.38;;;;;;;11.75;63.00;100480.91;1676954;83;21390;-53
2022/04/22 11:45:14;;;;;;;13.70;9.00;;;;;;;11.78;62.49;100483.30;1678011;83;21114;-53
2022/04/22 11:47:42;;;;;;;13.65;9.90;;;;;;;11.79;62.21;100486.30;1670643;83;21145;-53
2022/04/22 11:50:12;;;;;;;15.20;9.13;;;;;;;11.77;62.32;100478.52;1673576;83;21125;-53
2022/04/22 11:52:41;;;;;;;12.43;8.23;;;;;;;11.80;62.34;100481.36;1677577;84;22184;-53
2022/04/22 11:55:09;;;;;;;11.12;7.45;;;;;;;11.88;62.42;100481.56;1673841;83;21009;-53
2022/04/22 11:57:37;;;;;;;11.93;7.70;;;;;;;11.97;61.98;100475.55;1678282;83;21528;-53
2022/04/22 12:05:44;;;;;;;13.43;9.98;;;;;;;12.20;61.69;100476.71;1676536;83;22483;-52
2022/04/22 12:08:13;;;;;;;14.80;10.05;;;;;;;12.28;61.72;100474.25;1654845;85;21170;-53
2022/04/22 12:10:46;;;;;;;14.70;9.25;;;;;;;12.32;61.69;100466.41;1677584;83;21009;-53
2022/04/22 12:13:14;;;;;;;11.40;8.18;;;;;;;12.35;61.70;100463.52;1678441;83;21096;-53
2022/04/22 12:15:46;;;;;;;11.63;8.00;;;;;;;12.39;61.62;100456.16;1676901;83;21602;-53
2022/04/22 12:18:35;;;;;;;11.68;8.60;;;;;;;12.43;61.50;100461.55;1679282;83;21071;-53
2022/04/22 12:21:04;;;;;;;13.60;9.13;;;;;;;12.46;61.39;100458.65;1677145;83;21082;-52
2022/04/22 12:23:39;;;;;;;11.95;8.88;;;;;;;12.50;61.50;100449.97;1679618;84;21061;-52
2022/04/22 12:26:22;;;;;;;12.03;8.53;;;;;;;12.52;61.44;100457.27;1679318;83;21077;-52
2022/04/22 12:29:19;;;;;;;12.00;7.92;;;;;;;12.56;61.46;100453.41;1678764;83;21501;-53
2022/04/22 12:31:47;;;;;;;12.25;8.63;;;;;;;12.61;60.64;100455.16;1672410;84;21719;-52